createdAt,value
2018-04-14T00:02:45.911Z,60.83
2018-04-14T00:07:48.416Z,53.70
2018-04-14T00:12:50.911Z,70.60
2018-04-14T00:17:53.400Z,58.67
2018-04-14T00:22:55.887Z,63.40
2018-04-14T00:27:58.376Z,59.43
2018-04-14T00:33:00.863Z,56.23
2018-04-14T00:38:03.364Z,61.17
2018-04-14T00:43:05.867Z,60.80
2018-04-14T00:48:08.351Z,67.50
2018-04-14T00:53:22.552Z,63.70
2018-04-14T00:58:25.040Z,64.37
2018-04-14T01:03:27.519Z,65.47
2018-04-14T01:08:30.023Z,66.57
2018-04-14T01:13:32.540Z,62.17
2018-04-14T01:18:35.808Z,73.17
2018-04-14T01:23:38.312Z,71.97
2018-04-14T01:28:41.574Z,71.57
2018-04-14T01:33:44.071Z,64.90
2018-04-14T01:38:46.576Z,74.77
2018-04-14T01:43:49.071Z,75.73
2018-04-14T01:48:51.569Z,81.37
2018-04-14T01:53:54.072Z,77.20
2018-04-14T01:58:56.562Z,83.83
2018-04-14T02:03:59.052Z,82.00
2018-04-14T02:09:01.556Z,77.97
2018-04-14T02:14:04.061Z,82.37
2018-04-14T02:19:07.320Z,81.53
2018-04-14T02:24:09.820Z,80.50
2018-04-14T02:29:12.319Z,81.53
2018-04-14T02:34:14.820Z,78.63
2018-04-14T02:39:17.321Z,82.87
2018-04-14T02:44:19.808Z,82.17
2018-04-14T02:49:22.303Z,77.20
2018-04-14T02:54:24.783Z,76.50
2018-04-14T02:59:27.280Z,79.53
2018-04-14T03:04:29.781Z,73.57
2018-04-14T03:09:32.275Z,72.43
2018-04-14T03:14:34.779Z,69.27
2018-04-14T03:19:37.276Z,68.93
2018-04-14T03:24:39.776Z,69.00
2018-04-14T03:29:42.263Z,65.23
2018-04-14T03:34:44.748Z,68.87
2018-04-14T03:39:47.236Z,75.70
2018-04-14T03:44:49.720Z,63.13
2018-04-14T03:49:52.221Z,66.63
2018-04-14T03:54:54.720Z,63.57
2018-04-14T03:59:57.209Z,65.60
2018-04-14T04:04:59.709Z,67.50
2018-04-14T04:10:02.200Z,61.40
2018-04-14T04:15:04.701Z,62.47
2018-04-14T04:20:19.720Z,64.43
2018-04-14T04:25:39.826Z,66.63
2018-04-14T04:30:43.089Z,61.70
2018-04-14T04:35:45.630Z,59.07
2018-04-14T04:40:48.103Z,61.23
2018-04-14T04:45:50.593Z,59.87
2018-04-14T04:50:53.079Z,58.60
2018-04-14T04:55:55.572Z,59.40
2018-04-14T05:00:58.065Z,61.67
2018-04-14T05:06:00.564Z,59.40
2018-04-14T05:11:03.064Z,61.60
2018-04-14T05:16:05.565Z,56.73
2018-04-14T05:21:08.825Z,60.40
2018-04-14T05:26:11.317Z,59.30
2018-04-14T05:31:13.806Z,57.50
2018-04-14T05:36:16.295Z,62.13
2018-04-14T05:41:18.780Z,58.30
2018-04-14T05:46:21.269Z,68.83
2018-04-14T05:51:23.771Z,57.63
2018-04-14T05:56:26.264Z,55.23
2018-04-14T06:01:28.770Z,55.37
2018-04-14T06:06:31.296Z,61.63
2018-04-14T06:11:33.787Z,59.40
2018-04-14T06:16:36.293Z,60.10
2018-04-14T06:21:39.560Z,68.67
2018-04-14T06:26:42.056Z,66.50
2018-04-14T06:31:44.544Z,59.60
2018-04-14T06:36:47.811Z,66.57
2018-04-14T06:41:51.071Z,68.00
2018-04-14T06:46:54.343Z,78.50
2018-04-14T06:51:56.847Z,79.43
2018-04-14T06:56:59.367Z,83.47
2018-04-14T07:02:01.876Z,83.73
2018-04-14T07:07:04.363Z,98.17
2018-04-14T07:12:07.024Z,91.33
2018-04-14T07:17:09.519Z,95.50
2018-04-14T07:22:12.008Z,98.50
2018-04-14T07:27:14.517Z,94.43
2018-04-14T07:32:17.012Z,96.77
2018-04-14T07:37:19.521Z,99.87
2018-04-14T07:42:22.016Z,98.63
2018-04-14T07:47:24.499Z,92.03
2018-04-14T07:52:26.992Z,94.70
2018-04-14T07:57:29.495Z,81.37
2018-04-14T08:02:31.984Z,86.50
2018-04-14T08:07:34.488Z,79.17
2018-04-14T08:12:36.994Z,81.50
2018-04-14T08:17:39.497Z,81.90
2018-04-14T08:22:42.760Z,66.00
2018-04-14T08:27:46.112Z,68.43
2018-04-14T08:32:48.616Z,65.57
2018-04-14T08:37:51.920Z,74.17
2018-04-14T08:42:55.196Z,67.60
2018-04-14T08:47:57.684Z,84.97
2018-04-14T08:53:00.167Z,68.87
2018-04-14T08:58:02.657Z,67.37
2018-04-14T09:03:05.143Z,67.87
2018-04-14T09:08:07.636Z,65.33
2018-04-14T09:13:10.141Z,66.40
2018-04-14T09:18:12.631Z,76.37
2018-04-14T09:23:15.128Z,72.23
2018-04-14T09:28:17.616Z,84.07
2018-04-14T09:33:20.112Z,106.70
2018-04-14T09:38:22.620Z,102.07
2018-04-14T09:43:25.115Z,123.40
2018-04-14T09:48:27.645Z,126.53
2018-04-14T09:53:30.923Z,120.50
2018-04-14T09:58:33.428Z,120.33
2018-04-14T10:03:36.039Z,113.33
2018-04-14T10:08:39.357Z,131.20
2018-04-14T10:13:43.545Z,122.07
2018-04-14T10:18:46.040Z,132.83
2018-04-14T10:23:48.552Z,134.40
2018-04-14T10:28:51.054Z,114.67
2018-04-14T10:33:53.560Z,116.47
2018-04-14T10:38:56.836Z,124.43
2018-04-14T10:43:59.349Z,129.73
2018-04-14T10:49:01.879Z,133.50
2018-04-14T10:54:04.390Z,126.77
2018-04-14T10:59:06.885Z,116.70
2018-04-14T11:04:09.372Z,106.43
2018-04-14T11:09:11.860Z,117.60
2018-04-14T11:14:14.363Z,118.83
2018-04-14T11:19:16.869Z,119.53
2018-04-14T11:24:19.365Z,92.27
2018-04-14T11:29:21.868Z,106.63
2018-04-14T11:34:24.381Z,100.73
2018-04-14T11:39:27.633Z,91.53
2018-04-14T11:44:30.127Z,99.23
2018-04-14T11:49:32.633Z,92.40
2018-04-14T11:54:35.107Z,99.70
2018-04-14T11:59:37.609Z,96.00
2018-04-14T12:04:40.121Z,96.10
2018-04-14T12:09:42.620Z,90.43
2018-04-14T12:14:45.107Z,90.17
2018-04-14T12:19:47.596Z,91.80
2018-04-14T12:24:50.084Z,89.83
2018-04-14T12:29:52.565Z,81.33
2018-04-14T12:34:55.056Z,79.73
2018-04-14T12:39:57.534Z,75.53
2018-04-14T12:45:00.021Z,68.47
2018-04-14T12:50:02.525Z,73.40
2018-04-14T12:55:05.776Z,78.73
2018-04-14T13:00:08.293Z,84.23
2018-04-14T13:05:11.552Z,69.70
2018-04-14T13:10:14.063Z,77.83
2018-04-14T13:15:16.550Z,68.70
2018-04-14T13:20:19.045Z,100.77
2018-04-14T13:25:21.536Z,68.60
2018-04-14T13:30:24.044Z,89.10
2018-04-14T13:35:26.540Z,90.40
2018-04-14T13:40:29.033Z,68.37
2018-04-14T13:45:31.531Z,68.40
2018-04-14T13:50:34.037Z,87.83
2018-04-14T13:55:37.435Z,81.70
2018-04-14T14:00:39.932Z,72.50
2018-04-14T14:05:42.425Z,72.40
2018-04-14T14:10:44.924Z,84.83
2018-04-14T14:15:47.412Z,87.20
2018-04-14T14:20:49.915Z,77.60
2018-04-14T14:25:52.419Z,87.67
2018-04-14T14:30:55.676Z,75.63
2018-04-14T14:35:58.182Z,69.47
2018-04-14T14:41:00.684Z,77.20
2018-04-14T14:46:03.192Z,67.97
2018-04-14T14:51:05.688Z,67.63
2018-04-14T14:56:08.179Z,62.13
2018-04-14T15:01:10.668Z,70.77
2018-04-14T15:06:13.159Z,61.87
2018-04-14T15:11:15.670Z,63.13
2018-04-14T15:16:18.942Z,61.47
2018-04-14T15:21:21.444Z,68.10
2018-04-14T15:26:23.943Z,66.97
2018-04-14T15:31:26.440Z,67.73
2018-04-14T15:36:28.950Z,66.03
2018-04-14T15:41:32.220Z,62.47
2018-04-14T15:46:34.738Z,71.67
2018-04-14T15:51:37.264Z,66.53
2018-04-14T15:56:40.518Z,73.07
2018-04-14T16:01:43.016Z,57.90
2018-04-14T16:06:45.513Z,65.13
2018-04-14T16:11:47.996Z,68.53
2018-04-14T16:16:50.501Z,67.40
2018-04-14T16:21:53.000Z,60.43
2018-04-14T16:26:55.488Z,67.97
2018-04-14T16:31:57.971Z,63.27
2018-04-14T16:37:00.456Z,54.33
2018-04-14T16:42:02.945Z,56.00
2018-04-14T16:47:05.436Z,62.20
2018-04-14T16:52:07.930Z,54.90
2018-04-14T16:57:10.455Z,61.33
2018-04-14T17:02:12.960Z,56.83
2018-04-14T17:07:16.245Z,79.97
2018-04-14T17:12:18.748Z,61.80
2018-04-14T17:17:21.244Z,67.43
2018-04-14T17:22:23.732Z,66.13
2018-04-14T17:27:26.275Z,71.77
2018-04-14T17:32:28.776Z,80.23
2018-04-14T17:37:31.307Z,72.83
2018-04-14T17:42:33.772Z,81.50
2018-04-14T17:47:36.264Z,74.17
2018-04-14T17:52:38.744Z,70.73
2018-04-14T17:57:41.257Z,71.57
2018-04-14T18:02:44.518Z,61.57
2018-04-14T18:07:47.791Z,66.23
2018-04-14T18:12:50.276Z,75.87
2018-04-14T18:17:52.777Z,65.93
2018-04-14T18:22:55.309Z,70.57
2018-04-14T18:27:58.560Z,71.00
2018-04-14T18:33:01.047Z,69.17
2018-04-14T18:38:03.535Z,67.20
2018-04-14T18:43:06.032Z,72.93
2018-04-14T18:48:08.537Z,69.83
2018-04-14T18:53:11.021Z,66.63
2018-04-14T18:58:13.507Z,69.73
2018-04-14T19:03:16.009Z,64.70
2018-04-14T19:08:18.532Z,68.37
2018-04-14T19:13:21.044Z,63.30
2018-04-14T19:18:23.752Z,68.70
2018-04-14T19:23:26.365Z,59.30
2018-04-14T19:28:28.916Z,72.50
2018-04-14T19:33:31.404Z,64.80
2018-04-14T19:38:33.952Z,66.00
2018-04-14T19:43:36.455Z,68.77
2018-04-14T19:48:39.061Z,67.30
2018-04-14T19:53:42.272Z,62.13
2018-04-14T19:58:44.765Z,66.10
2018-04-14T20:03:47.260Z,69.87
2018-04-14T20:08:49.769Z,65.50
2018-04-14T20:13:52.268Z,75.33
2018-04-14T20:18:54.764Z,61.73
2018-04-14T20:23:57.317Z,73.10
2018-04-14T20:28:59.883Z,65.13
2018-04-14T20:34:03.384Z,65.60
2018-04-14T20:39:06.744Z,68.17
2018-04-14T20:44:09.237Z,68.17
2018-04-14T20:49:11.740Z,64.77
2018-04-14T20:54:14.376Z,69.80
2018-04-14T20:59:16.956Z,63.43
2018-04-14T21:04:19.526Z,60.87
2018-04-14T21:09:23.412Z,62.90
2018-04-14T21:14:25.914Z,76.47
2018-04-14T21:19:28.412Z,65.40
2018-04-14T21:24:30.893Z,69.87
2018-04-14T21:29:33.388Z,68.90
2018-04-14T21:34:35.885Z,68.30
2018-04-14T21:39:38.367Z,75.67
2018-04-14T21:44:40.851Z,72.80
2018-04-14T21:49:43.348Z,70.13
2018-04-14T21:54:45.835Z,76.67
2018-04-14T21:59:48.327Z,66.87
2018-04-14T22:04:50.873Z,75.07
2018-04-14T22:09:53.338Z,62.47
2018-04-14T22:14:55.841Z,68.30
2018-04-14T22:19:58.339Z,69.87
2018-04-14T22:25:00.841Z,73.37
2018-04-14T22:30:03.343Z,72.47
2018-04-14T22:35:05.844Z,75.87
2018-04-14T22:40:08.340Z,72.93
2018-04-14T22:45:10.927Z,71.17
2018-04-14T22:50:13.424Z,67.37
2018-04-14T22:55:15.918Z,72.37
2018-04-14T23:00:18.428Z,64.47
2018-04-14T23:05:21.680Z,70.60
2018-04-14T23:10:24.180Z,70.37
2018-04-14T23:15:26.680Z,70.03
2018-04-14T23:20:29.155Z,74.17
2018-04-14T23:25:31.649Z,73.17
2018-04-14T23:30:34.128Z,66.50
2018-04-14T23:35:36.634Z,72.27
2018-04-14T23:40:39.135Z,75.73
2018-04-14T23:45:41.629Z,69.37
2018-04-14T23:50:44.108Z,75.43
2018-04-14T23:55:46.607Z,79.83
